Smithboro, Illinois
Current Conditions -  °F | °C
As of 3:15 AM on Wednesday 28 Jan 2015 (Local Time) from K3LF Reporting Station
Clear Clear  
Wind Chill: 19°   Ceiling: Unl
Heat Index: 26°   Visibility: 7mi
Dew Point: 22°   Wind: 6mph
Humidity: 88%   Direction: 140°SE
Pressure: 30.25"   Gusts: NA
Location:  38.9°N, 89.34°W
Report Text: K3LF 280915Z AUTO 14005KT 7SM CLR M04/M05 A3025 RMK AO2 T10361053
Loading
Personal Weather Stations






























Interactive Weather Map New forecast layout! Learn more

10-Day Weather Forecast

Advertisements
Track Severe Weather on mobile